Time;durP1;ratioP1;P1;durP2;ratioP2;P2;SDS_P1;SDS_P2;PMS_P1;PMS_P2;Temp;Humidity;BMP_temperature;BMP_pressure;BME280_temperature;BME280_humidity;BME280_pressure;Samples;Min_cycle;Max_cycle;Signal;HPM_P1;HPM_P2
2023/08/13 00:00:01;;;;;;;5.00;4.63;;;;;;;;;;5095360;28;20513;-62
2023/08/13 00:02:32;;;;;;;4.90;4.60;;;;;;;;;;5095074;28;20412;-62
2023/08/13 00:04:58;;;;;;;5.60;5.17;;;;;;;;;;5095157;28;20479;-62
2023/08/13 00:07:24;;;;;;;5.57;5.07;;;;;;;;;;5095107;28;20424;-62
2023/08/13 00:09:50;;;;;;;4.90;4.50;;;;;;;;;;5095058;28;20419;-62
2023/08/13 00:12:16;;;;;;;5.40;4.87;;;;;;;;;;5094927;28;20485;-62
2023/08/13 00:14:42;;;;;;;4.40;4.20;;;;;;;;;;5094985;28;20529;-62
2023/08/13 00:17:08;;;;;;;6.23;5.60;;;;;;;;;;5094807;28;20416;-62
2023/08/13 00:19:34;;;;;;;4.97;4.70;;;;;;;;;;5094958;28;20395;-63
2023/08/13 00:22:02;;;;;;;5.40;5.00;;;;;;;;;;5093970;28;20465;-63
2023/08/13 00:24:31;;;;;;;7.23;4.73;;;;;;;;;;5094691;28;20893;-63
2023/08/13 00:26:56;;;;;;;5.23;4.93;;;;;;;;;;5094794;28;20437;-63
2023/08/13 00:29:22;;;;;;;8.20;5.50;;;;;;;;;;5094755;28;20399;-63
2023/08/13 00:31:48;;;;;;;5.37;4.90;;;;;;;;;;5094509;28;20410;-63
2023/08/13 00:34:14;;;;;;;5.67;5.27;;;;;;;;;;5094841;28;20407;-63
2023/08/13 00:36:40;;;;;;;5.20;4.80;;;;;;;;;;5094452;28;20413;-63
2023/08/13 00:39:06;;;;;;;5.87;5.47;;;;;;;;;;5094630;28;20454;-63
2023/08/13 00:41:32;;;;;;;5.53;5.03;;;;;;;;;;5094316;28;20427;-63
2023/08/13 00:44:00;;;;;;;5.30;5.00;;;;;;;;;;5094551;28;20454;-63
2023/08/13 00:46:29;;;;;;;5.30;5.10;;;;;;;;;;5094449;28;20494;-63
2023/08/13 00:48:57;;;;;;;6.17;5.67;;;;;;;;;;5094148;28;20429;-63
2023/08/13 00:51:26;;;;;;;8.33;6.20;;;;;;;;;;5094252;28;20802;-63
2023/08/13 00:53:53;;;;;;;6.33;5.73;;;;;;;;;;5094240;28;20419;-63
2023/08/13 00:56:20;;;;;;;5.70;5.30;;;;;;;;;;5092780;28;20440;-63
2023/08/13 00:58:46;;;;;;;4.87;4.57;;;;;;;;;;5094495;28;20420;-63
2023/08/13 01:01:12;;;;;;;5.47;5.03;;;;;;;;;;5094279;28;20799;-63
2023/08/13 01:03:42;;;;;;;4.93;4.60;;;;;;;;;;5093916;28;20506;-63
2023/08/13 01:06:14;;;;;;;4.90;4.80;;;;;;;;;;5094009;28;20443;-63
2023/08/13 01:08:49;;;;;;;9.20;5.03;;;;;;;;;;5094025;28;20774;-63
2023/08/13 01:11:29;;;;;;;6.77;4.90;;;;;;;;;;5093755;28;20816;-63
2023/08/13 01:14:14;;;;;;;5.77;5.27;;;;;;;;;;5093870;28;20419;-63
2023/08/13 01:16:43;;;;;;;5.70;5.20;;;;;;;;;;5093810;28;20431;-63
2023/08/13 01:19:12;;;;;;;5.90;5.07;;;;;;;;;;5093734;28;20416;-63
2023/08/13 01:21:38;;;;;;;5.00;4.80;;;;;;;;;;5094016;28;20416;-63
2023/08/13 01:24:05;;;;;;;5.67;5.27;;;;;;;;;;5093639;28;20466;-63
2023/08/13 01:26:37;;;;;;;7.23;5.63;;;;;;;;;;5093775;28;20505;-63
2023/08/13 01:29:09;;;;;;;7.33;6.10;;;;;;;;;;5093563;28;20410;-63
2023/08/13 01:31:38;;;;;;;5.90;5.50;;;;;;;;;;5093518;28;20433;-63
2023/08/13 01:34:05;;;;;;;6.43;5.83;;;;;;;;;;5092328;28;20407;-63
2023/08/13 01:36:34;;;;;;;10.50;5.67;;;;;;;;;;5092197;28;20486;-63
2023/08/13 01:39:01;;;;;;;7.63;6.60;;;;;;;;;;5093180;28;20414;-62
2023/08/13 01:41:34;;;;;;;7.60;5.90;;;;;;;;;;5093470;28;20431;-63
2023/08/13 01:44:00;;;;;;;7.43;6.13;;;;;;;;;;5093161;28;20460;-63
2023/08/13 01:46:26;;;;;;;11.63;6.10;;;;;;;;;;5093206;28;20501;-63
2023/08/13 01:48:52;;;;;;;11.00;6.40;;;;;;;;;;5091937;28;20513;-63
2023/08/13 01:51:18;;;;;;;6.43;5.80;;;;;;;;;;5093185;28;20511;-63
2023/08/13 01:53:47;;;;;;;7.37;6.50;;;;;;;;;;5093039;28;20426;-63
2023/08/13 01:56:13;;;;;;;10.13;6.40;;;;;;;;;;5093201;28;20448;-63
2023/08/13 01:58:39;;;;;;;6.73;6.23;;;;;;;;;;5092969;28;20449;-63
2023/08/13 02:01:05;;;;;;;8.97;6.40;;;;;;;;;;5093020;28;20445;-63
2023/08/13 02:03:33;;;;;;;6.97;6.13;;;;;;;;;;5092873;28;20426;-63
2023/08/13 02:05:59;;;;;;;7.27;6.53;;;;;;;;;;5092920;28;20455;-63
2023/08/13 02:08:28;;;;;;;9.53;6.27;;;;;;;;;;5092744;28;20419;-63
2023/08/13 02:10:54;;;;;;;18.93;7.30;;;;;;;;;;5092939;28;20433;-63
2023/08/13 02:13:20;;;;;;;12.73;6.90;;;;;;;;;;5092726;28;20531;-63
2023/08/13 02:15:46;;;;;;;7.27;6.63;;;;;;;;;;5092820;28;20451;-63
2023/08/13 02:18:14;;;;;;;7.57;6.50;;;;;;;;;;5092702;28;20419;-63
2023/08/13 02:20:40;;;;;;;7.30;6.57;;;;;;;;;;5092892;28;20442;-63
2023/08/13 02:23:06;;;;;;;10.83;6.90;;;;;;;;;;5092649;28;20752;-63
2023/08/13 02:25:32;;;;;;;10.07;7.50;;;;;;;;;;5092693;28;20466;-63
2023/08/13 02:27:58;;;;;;;15.27;7.87;;;;;;;;;;5092506;28;20917;-63
2023/08/13 02:30:24;;;;;;;7.77;6.90;;;;;;;;;;5092722;28;20414;-63
2023/08/13 02:32:50;;;;;;;9.63;7.30;;;;;;;;;;5092573;28;20493;-63
2023/08/13 02:35:16;;;;;;;9.73;7.80;;;;;;;;;;5092787;28;20964;-63
2023/08/13 02:37:42;;;;;;;8.00;7.30;;;;;;;;;;5092456;28;20523;-63
2023/08/13 02:40:08;;;;;;;7.40;6.90;;;;;;;;;;5092617;28;20402;-63
2023/08/13 02:42:34;;;;;;;8.07;7.47;;;;;;;;;;5092525;28;20494;-63
2023/08/13 02:45:00;;;;;;;8.30;7.57;;;;;;;;;;5094304;28;20648;-63
2023/08/13 02:47:26;;;;;;;12.13;8.23;;;;;;;;;;5096673;28;20551;-63
2023/08/13 02:49:52;;;;;;;8.70;7.80;;;;;;;;;;5096641;28;20541;-63
2023/08/13 02:52:22;;;;;;;7.40;6.70;;;;;;;;;;5096490;28;20412;-63
2023/08/13 02:54:48;;;;;;;14.23;7.47;;;;;;;;;;5096432;28;20780;-63
2023/08/13 02:57:16;;;;;;;7.10;6.60;;;;;;;;;;5096440;28;20445;-63
2023/08/13 02:59:47;;;;;;;8.07;7.53;;;;;;;;;;5096539;28;20400;-63
2023/08/13 03:02:16;;;;;;;9.23;7.93;;;;;;;;;;5096346;28;20442;-63
2023/08/13 03:04:42;;;;;;;8.93;8.13;;;;;;;;;;5096221;28;20467;-63
2023/08/13 03:07:11;;;;;;;8.23;7.53;;;;;;;;;;5096334;28;20518;-63
2023/08/13 03:09:37;;;;;;;8.40;7.20;;;;;;;;;;5096304;28;20873;-63
2023/08/13 03:12:03;;;;;;;16.00;7.70;;;;;;;;;;5095662;28;20483;-63
2023/08/13 03:14:29;;;;;;;7.90;7.27;;;;;;;;;;5096195;28;20498;-63
2023/08/13 03:16:55;;;;;;;7.83;7.13;;;;;;;;;;5096280;28;20481;-63
2023/08/13 03:19:23;;;;;;;8.07;7.37;;;;;;;;;;5095887;28;20426;-63
2023/08/13 03:21:51;;;;;;;8.33;7.60;;;;;;;;;;5096072;28;20467;-63
2023/08/13 03:24:17;;;;;;;8.50;7.30;;;;;;;;;;5095742;28;20461;-63
2023/08/13 03:26:43;;;;;;;10.00;8.43;;;;;;;;;;5096019;28;20405;-63
2023/08/13 03:29:09;;;;;;;8.47;7.73;;;;;;;;;;5095692;28;20417;-64
2023/08/13 03:31:35;;;;;;;10.50;8.57;;;;;;;;;;5095864;28;20506;-63
2023/08/13 03:34:03;;;;;;;11.20;8.80;;;;;;;;;;5095807;28;20546;-63
2023/08/13 03:36:31;;;;;;;9.60;8.80;;;;;;;;;;5095760;28;20505;-63
2023/08/13 03:38:57;;;;;;;9.10;7.60;;;;;;;;;;5095597;28;20421;-63
2023/08/13 03:41:23;;;;;;;8.50;7.67;;;;;;;;;;5095656;28;20798;-63
2023/08/13 03:43:49;;;;;;;8.77;7.80;;;;;;;;;;5095541;28;20460;-63
2023/08/13 03:46:18;;;;;;;8.37;7.63;;;;;;;;;;5095526;28;20427;-63
2023/08/13 03:48:44;;;;;;;8.80;7.93;;;;;;;;;;5095571;28;20404;-63
2023/08/13 03:51:09;;;;;;;8.63;7.93;;;;;;;;;;5095324;28;20409;-63
2023/08/13 03:53:35;;;;;;;10.33;7.10;;;;;;;;;;5095202;28;20437;-63
2023/08/13 03:56:05;;;;;;;9.07;8.17;;;;;;;;;;5094285;28;20399;-63
2023/08/13 03:58:34;;;;;;;8.57;7.83;;;;;;;;;;5095227;28;20487;-63
2023/08/13 04:01:09;;;;;;;8.70;7.90;;;;;;;;;;5095689;28;20891;-63
2023/08/13 04:03:36;;;;;;;8.30;7.77;;;;;;;;;;5095271;28;20808;-63
2023/08/13 04:06:02;;;;;;;8.70;7.90;;;;;;;;;;5095373;28;20412;-63
2023/08/13 04:08:28;;;;;;;12.00;7.87;;;;;;;;;;5095027;28;20768;-63
2023/08/13 04:10:54;;;;;;;7.33;6.83;;;;;;;;;;5095171;28;20412;-63
2023/08/13 04:13:20;;;;;;;7.73;7.03;;;;;;;;;;5094767;28;20483;-63
2023/08/13 04:15:45;;;;;;;10.43;7.57;;;;;;;;;;5095129;28;20463;-63
2023/08/13 04:18:11;;;;;;;7.93;7.43;;;;;;;;;;5094830;28;20434;-63
2023/08/13 04:20:39;;;;;;;10.43;7.80;;;;;;;;;;5095096;28;20901;-63
2023/08/13 04:23:08;;;;;;;12.10;8.03;;;;;;;;;;5094719;28;20920;-63
2023/08/13 04:25:36;;;;;;;8.40;7.60;;;;;;;;;;5094837;28;20469;-63
2023/08/13 04:28:05;;;;;;;9.60;8.60;;;;;;;;;;5094702;28;20497;-63
2023/08/13 04:30:33;;;;;;;8.00;7.07;;;;;;;;;;5094914;28;20498;-63
2023/08/13 04:32:59;;;;;;;8.00;7.50;;;;;;;;;;5094646;28;20437;-63
2023/08/13 04:35:25;;;;;;;8.93;8.03;;;;;;;;;;5094595;28;20428;-63
2023/08/13 04:37:51;;;;;;;9.07;8.17;;;;;;;;;;5094521;28;20973;-63
2023/08/13 04:40:20;;;;;;;9.00;7.93;;;;;;;;;;5094468;28;20432;-63
2023/08/13 04:42:46;;;;;;;8.50;7.70;;;;;;;;;;5094509;28;20439;-63
2023/08/13 04:45:12;;;;;;;8.27;7.43;;;;;;;;;;5094511;28;20459;-63
2023/08/13 04:47:39;;;;;;;9.60;8.00;;;;;;;;;;5094288;28;20471;-63
2023/08/13 04:50:09;;;;;;;9.63;8.70;;;;;;;;;;5094215;28;20419;-63
2023/08/13 04:52:37;;;;;;;9.60;8.33;;;;;;;;;;5094281;28;20434;-63
2023/08/13 04:55:03;;;;;;;8.30;7.70;;;;;;;;;;5092952;28;20460;-63
2023/08/13 04:57:29;;;;;;;8.97;8.17;;;;;;;;;;5094143;28;20581;-63
2023/08/13 04:59:55;;;;;;;9.50;8.33;;;;;;;;;;5094041;28;20447;-63
2023/08/13 05:02:21;;;;;;;10.23;8.37;;;;;;;;;;5094114;28;20424;-63
2023/08/13 05:04:49;;;;;;;12.27;8.60;;;;;;;;;;5093981;28;20462;-63
2023/08/13 05:07:15;;;;;;;11.20;7.93;;;;;;;;;;5093757;28;20438;-63
2023/08/13 05:09:41;;;;;;;15.60;8.67;;;;;;;;;;5093895;28;20411;-63
2023/08/13 05:12:08;;;;;;;9.17;8.27;;;;;;;;;;5093914;28;20456;-63
2023/08/13 05:14:34;;;;;;;9.20;8.50;;;;;;;;;;5093859;28;20761;-63
2023/08/13 05:17:00;;;;;;;12.33;8.60;;;;;;;;;;5093923;28;20519;-63
2023/08/13 05:19:25;;;;;;;10.43;8.53;;;;;;;;;;5093746;28;20392;-63
2023/08/13 05:21:51;;;;;;;8.97;8.17;;;;;;;;;;5093775;28;20410;-63
2023/08/13 05:24:17;;;;;;;12.17;8.37;;;;;;;;;;5093436;28;20967;-63
2023/08/13 05:26:43;;;;;;;7.97;7.37;;;;;;;;;;5093834;28;20436;-63
2023/08/13 05:29:09;;;;;;;8.53;7.50;;;;;;;;;;5093514;28;20412;-63
2023/08/13 05:31:38;;;;;;;9.47;8.30;;;;;;;;;;5093639;28;20418;-63
2023/08/13 05:34:04;;;;;;;12.03;8.30;;;;;;;;;;5093457;28;20900;-63
2023/08/13 05:36:30;;;;;;;8.20;7.70;;;;;;;;;;5093440;28;20413;-63
2023/08/13 05:38:56;;;;;;;10.10;8.63;;;;;;;;;;5093399;28;21024;-63
2023/08/13 05:41:22;;;;;;;7.53;7.00;;;;;;;;;;5093515;28;20498;-63
2023/08/13 05:43:47;;;;;;;9.87;8.93;;;;;;;;;;5092911;28;20480;-63
2023/08/13 05:46:14;;;;;;;14.73;8.77;;;;;;;;;;5093351;28;20408;-63
2023/08/13 05:48:42;;;;;;;27.50;15.70;;;;;;;;;;5093048;28;20405;-63
2023/08/13 05:51:08;;;;;;;13.50;12.33;;;;;;;;;;5093166;28;20413;-63
2023/08/13 05:53:34;;;;;;;9.13;8.13;;;;;;;;;;5092952;28;20427;-63
2023/08/13 05:56:00;;;;;;;8.53;7.70;;;;;;;;;;5091958;28;20829;-63
2023/08/13 05:58:28;;;;;;;8.87;7.70;;;;;;;;;;5092874;28;20528;-63
2023/08/13 06:00:56;;;;;;;8.37;7.80;;;;;;;;;;5093154;28;20973;-63
2023/08/13 06:03:27;;;;;;;8.23;7.53;;;;;;;;;;5092872;28;20490;-63
2023/08/13 06:05:53;;;;;;;58.00;51.80;;;;;;;;;;5092928;28;20478;-63
2023/08/13 06:08:19;;;;;;;8.17;7.40;;;;;;;;;;5092760;28;20431;-63
2023/08/13 06:10:45;;;;;;;7.47;6.73;;;;;;;;;;5092844;28;20412;-63
2023/08/13 06:13:14;;;;;;;9.33;7.13;;;;;;;;;;5093169;28;20791;-63
2023/08/13 06:15:40;;;;;;;6.90;6.50;;;;;;;;;;5092726;28;20427;-63
2023/08/13 06:18:06;;;;;;;5.77;5.37;;;;;;;;;;5092604;28;20492;-63
2023/08/13 06:20:32;;;;;;;5.97;5.57;;;;;;;;;;5092171;28;20423;-63
2023/08/13 06:22:58;;;;;;;8.00;7.40;;;;;;;;;;5092590;28;20472;-63
2023/08/13 06:25:24;;;;;;;15.00;13.47;;;;;;;;;;5091546;28;20958;-63
2023/08/13 06:27:52;;;;;;;7.00;5.77;;;;;;;;;;5092358;28;20449;-63
2023/08/13 06:30:19;;;;;;;6.20;5.80;;;;;;;;;;5092699;28;20503;-63
2023/08/13 06:32:44;;;;;;;7.63;5.23;;;;;;;;;;5092447;28;20447;-63
2023/08/13 06:35:10;;;;;;;11.93;5.60;;;;;;;;;;5092677;28;20414;-63
2023/08/13 06:37:36;;;;;;;6.70;6.10;;;;;;;;;;5092429;28;20448;-63
2023/08/13 06:40:03;;;;;;;10.13;6.80;;;;;;;;;;5092600;28;20765;-63
2023/08/13 06:42:29;;;;;;;11.63;6.43;;;;;;;;;;5092333;28;20958;-63
2023/08/13 06:44:57;;;;;;;7.80;6.70;;;;;;;;;;5092474;28;20555;-63
2023/08/13 06:47:23;;;;;;;7.50;6.77;;;;;;;;;;5092213;28;20431;-63
2023/08/13 06:49:49;;;;;;;7.53;6.73;;;;;;;;;;5092278;28;20415;-63
2023/08/13 06:52:17;;;;;;;7.73;6.30;;;;;;;;;;5092617;28;20457;-63
2023/08/13 06:54:45;;;;;;;6.40;5.90;;;;;;;;;;5092211;28;20412;-63
2023/08/13 06:57:11;;;;;;;5.90;5.50;;;;;;;;;;5092338;28;20432;-63
2023/08/13 06:59:37;;;;;;;7.53;5.77;;;;;;;;;;5092356;28;20452;-63
2023/08/13 07:02:04;;;;;;;5.13;4.93;;;;;;;;;;5092352;28;20397;-63
2023/08/13 07:04:30;;;;;;;4.90;4.70;;;;;;;;;;5092223;28;20467;-63
2023/08/13 07:06:57;;;;;;;7.70;5.70;;;;;;;;;;5092317;28;20941;-63
2023/08/13 07:09:24;;;;;;;5.03;4.60;;;;;;;;;;5092314;28;20893;-63
2023/08/13 07:11:50;;;;;;;4.53;4.27;;;;;;;;;;5092187;28;20787;-63
2023/08/13 07:14:17;;;;;;;5.00;4.53;;;;;;;;;;5092407;28;20452;-63
2023/08/13 07:16:46;;;;;;;4.13;3.73;;;;;;;;;;5092331;28;20397;-63
2023/08/13 07:19:12;;;;;;;6.73;4.80;;;;;;;;;;5092029;28;20824;-63
2023/08/13 07:21:38;;;;;;;4.87;3.70;;;;;;;;;;5092237;28;20425;-63
2023/08/13 07:24:04;;;;;;;14.20;12.87;;;;;;;;;;5091826;28;20568;-63
2023/08/13 07:26:34;;;;;;;6.40;5.60;;;;;;;;;;5092114;28;20857;-63
2023/08/13 07:29:00;;;;;;;5.30;4.30;;;;;;;;;;5091963;28;20429;-63
2023/08/13 07:31:26;;;;;;;5.00;4.30;;;;;;;;;;5094402;28;20896;-63
2023/08/13 07:33:53;;;;;;;4.40;3.60;;;;;;;;;;5095751;28;20428;-63
2023/08/13 07:36:22;;;;;;;4.20;4.00;;;;;;;;;;5095946;28;20538;-63
2023/08/13 07:38:48;;;;;;;4.03;3.63;;;;;;;;;;5095503;28;20421;-63
2023/08/13 07:41:14;;;;;;;3.93;3.63;;;;;;;;;;5095773;28;20746;-63
2023/08/13 07:43:40;;;;;;;3.97;3.77;;;;;;;;;;5095526;28;20435;-63
2023/08/13 07:46:06;;;;;;;2.90;2.80;;;;;;;;;;5095546;28;20420;-63
2023/08/13 07:48:32;;;;;;;3.90;3.63;;;;;;;;;;5095409;28;20929;-63
2023/08/13 07:51:00;;;;;;;2.83;2.73;;;;;;;;;;5095416;28;20483;-63
2023/08/13 07:53:29;;;;;;;2.80;2.60;;;;;;;;;;5095286;28;20550;-63
2023/08/13 07:55:57;;;;;;;92.63;74.90;;;;;;;;;;5095266;28;20961;-63
2023/08/13 07:58:23;;;;;;;3.63;3.23;;;;;;;;;;5095254;28;20434;-63
2023/08/13 08:00:49;;;;;;;2.60;2.50;;;;;;;;;;5095280;28;20930;-63
2023/08/13 08:03:20;;;;;;;2.00;1.90;;;;;;;;;;5095459;28;20483;-63
2023/08/13 08:05:48;;;;;;;4.00;2.67;;;;;;;;;;5095278;28;20468;-63
2023/08/13 08:08:16;;;;;;;3.00;2.80;;;;;;;;;;5095108;28;20436;-63
2023/08/13 08:10:42;;;;;;;2.70;2.50;;;;;;;;;;5095256;28;20421;-63
2023/08/13 08:13:08;;;;;;;3.70;3.33;;;;;;;;;;5094838;28;20743;-63
2023/08/13 08:15:34;;;;;;;2.67;2.47;;;;;;;;;;5095119;28;20425;-63
2023/08/13 08:18:00;;;;;;;3.20;3.00;;;;;;;;;;5094909;28;20938;-63
2023/08/13 08:20:28;;;;;;;2.83;2.63;;;;;;;;;;5094837;28;20425;-63
2023/08/13 08:22:54;;;;;;;3.37;2.07;;;;;;;;;;5094814;28;20420;-63
2023/08/13 08:25:20;;;;;;;2.53;2.33;;;;;;;;;;5094914;28;20447;-63
2023/08/13 08:27:46;;;;;;;2.57;2.30;;;;;;;;;;5094755;28;20455;-63
2023/08/13 08:30:12;;;;;;;2.63;2.50;;;;;;;;;;5094801;28;20431;-63
2023/08/13 08:32:38;;;;;;;3.17;2.77;;;;;;;;;;5094649;28;20413;-63
2023/08/13 08:35:04;;;;;;;3.00;2.90;;;;;;;;;;5094688;28;20786;-63
2023/08/13 08:37:31;;;;;;;4.13;2.60;;;;;;;;;;5093231;28;20438;-63
2023/08/13 08:39:58;;;;;;;3.87;2.23;;;;;;;;;;5094602;28;20445;-63
2023/08/13 08:42:24;;;;;;;2.40;2.30;;;;;;;;;;5093872;28;20415;-63
2023/08/13 08:44:50;;;;;;;2.90;2.70;;;;;;;;;;5094392;28;20475;-63
2023/08/13 08:47:17;;;;;;;3.70;2.37;;;;;;;;;;5094203;28;20405;-63
2023/08/13 08:49:46;;;;;;;2.83;2.63;;;;;;;;;;5094663;28;20801;-63
2023/08/13 08:52:13;;;;;;;1.90;1.90;;;;;;;;;;5094333;28;20409;-63
2023/08/13 08:54:39;;;;;;;4.93;1.83;;;;;;;;;;5094106;28;20447;-63
2023/08/13 08:57:07;;;;;;;2.10;2.00;;;;;;;;;;5094082;28;20412;-63
2023/08/13 08:59:33;;;;;;;3.20;2.40;;;;;;;;;;5094216;28;20935;-63
2023/08/13 09:02:02;;;;;;;3.80;2.10;;;;;;;;;;5094317;28;20911;-63
2023/08/13 09:04:28;;;;;;;2.67;2.47;;;;;;;;;;5093926;28;20886;-63
2023/08/13 09:06:55;;;;;;;4.00;2.53;;;;;;;;;;5094325;28;20492;-63
2023/08/13 09:09:21;;;;;;;3.10;1.80;;;;;;;;;;5093823;28;20868;-63
2023/08/13 09:11:47;;;;;;;2.00;1.90;;;;;;;;;;5093471;28;20489;-63
2023/08/13 09:14:14;;;;;;;1.73;1.73;;;;;;;;;;5093804;28;20801;-63
2023/08/13 09:16:44;;;;;;;2.50;1.60;;;;;;;;;;5093899;28;20420;-63
2023/08/13 09:19:12;;;;;;;2.37;2.27;;;;;;;;;;5093687;28;20460;-63
2023/08/13 09:21:41;;;;;;;2.20;2.10;;;;;;;;;;5093858;28;20424;-63
2023/08/13 09:24:09;;;;;;;3.10;2.60;;;;;;;;;;5093572;28;20456;-63
2023/08/13 09:26:36;;;;;;;3.80;2.33;;;;;;;;;;5093972;28;20462;-63
2023/08/13 09:29:07;;;;;;;1.77;1.77;;;;;;;;;;5093545;28;20425;-63
2023/08/13 09:31:33;;;;;;;3.03;2.43;;;;;;;;;;5092476;28;20501;-63
2023/08/13 09:33:59;;;;;;;2.70;2.60;;;;;;;;;;5093487;28;20860;-63
2023/08/13 09:36:25;;;;;;;2.57;2.47;;;;;;;;;;5093460;28;20429;-63
2023/08/13 09:38:55;;;;;;;2.63;2.43;;;;;;;;;;5093522;28;20402;-63
2023/08/13 09:41:21;;;;;;;3.00;2.70;;;;;;;;;;5093524;28;20400;-63
2023/08/13 09:43:48;;;;;;;4.80;4.50;;;;;;;;;;5093249;28;20492;-63
2023/08/13 09:46:18;;;;;;;3.13;2.90;;;;;;;;;;5093376;28;20413;-63
2023/08/13 09:48:45;;;;;;;2.30;2.20;;;;;;;;;;5093367;28;20883;-63
2023/08/13 09:51:11;;;;;;;2.97;2.13;;;;;;;;;;5093133;28;20413;-63
2023/08/13 09:53:37;;;;;;;2.87;2.63;;;;;;;;;;5092730;28;20417;-63
2023/08/13 09:56:04;;;;;;;3.00;2.80;;;;;;;;;;5093020;28;20873;-63
2023/08/13 09:58:30;;;;;;;2.50;2.40;;;;;;;;;;5093033;28;20409;-63
2023/08/13 10:00:59;;;;;;;2.63;2.50;;;;;;;;;;5093003;28;20444;-63
2023/08/13 10:03:25;;;;;;;2.53;2.43;;;;;;;;;;5092962;28;20938;-63
2023/08/13 10:05:51;;;;;;;2.90;2.80;;;;;;;;;;5091619;28;20551;-63
2023/08/13 10:08:18;;;;;;;2.20;2.07;;;;;;;;;;5091844;28;20806;-63
2023/08/13 10:10:44;;;;;;;2.80;2.60;;;;;;;;;;5092975;28;20438;-63
2023/08/13 10:13:11;;;;;;;2.33;2.13;;;;;;;;;;5092754;28;20429;-63
2023/08/13 10:15:38;;;;;;;2.37;2.30;;;;;;;;;;5092808;28;20436;-63
2023/08/13 10:18:04;;;;;;;7.93;2.53;;;;;;;;;;5092755;28;20417;-63
2023/08/13 10:20:30;;;;;;;2.60;2.50;;;;;;;;;;5092853;28;20444;-63
2023/08/13 10:23:01;;;;;;;2.23;2.23;;;;;;;;;;5092840;28;20412;-63
2023/08/13 10:25:32;;;;;;;2.20;2.10;;;;;;;;;;5092578;28;20473;-63
2023/08/13 10:27:58;;;;;;;2.63;2.43;;;;;;;;;;5092771;28;20749;-63
2023/08/13 10:30:24;;;;;;;2.90;2.70;;;;;;;;;;5092649;28;20770;-63
2023/08/13 10:32:57;;;;;;;2.47;2.37;;;;;;;;;;5092632;28;20936;-63
2023/08/13 10:35:29;;;;;;;2.27;2.17;;;;;;;;;;5092500;28;20476;-63
2023/08/13 10:38:03;;;;;;;2.47;2.37;;;;;;;;;;5092623;28;20880;-63
2023/08/13 10:40:29;;;;;;;2.30;2.30;;;;;;;;;;5092540;28;20503;-63
2023/08/13 10:42:56;;;;;;;2.13;2.13;;;;;;;;;;5092652;28;20421;-63
2023/08/13 10:45:27;;;;;;;2.50;2.40;;;;;;;;;;5092366;28;20472;-63
2023/08/13 10:47:58;;;;;;;2.50;2.30;;;;;;;;;;5092559;28;20478;-63
2023/08/13 10:50:28;;;;;;;2.50;2.50;;;;;;;;;;5092397;28;20886;-63
2023/08/13 10:53:14;;;;;;;2.60;2.50;;;;;;;;;;5092554;28;20425;-63
2023/08/13 10:55:42;;;;;;;2.70;2.60;;;;;;;;;;5081710;28;20445;-63
2023/08/13 10:58:21;;;;;;;2.60;2.37;;;;;;;;;;5092466;28;20420;-63
2023/08/13 11:00:47;;;;;;;2.17;2.07;;;;;;;;;;5092334;28;20440;-63
2023/08/13 11:03:18;;;;;;;2.53;2.43;;;;;;;;;;5092300;28;20417;-63
2023/08/13 11:05:44;;;;;;;2.90;2.80;;;;;;;;;;5093474;28;20554;-63
2023/08/13 11:08:14;;;;;;;5.23;2.80;;;;;;;;;;5096632;28;20486;-63
2023/08/13 11:10:40;;;;;;;2.50;2.40;;;;;;;;;;5096575;28;20831;-63
2023/08/13 11:13:07;;;;;;;2.47;2.47;;;;;;;;;;5096245;28;20429;-63
2023/08/13 11:15:32;;;;;;;3.13;2.20;;;;;;;;;;5096093;28;20429;-63
2023/08/13 11:17:58;;;;;;;2.77;2.67;;;;;;;;;;5094830;28;20478;-63
2023/08/13 11:20:24;;;;;;;2.63;2.43;;;;;;;;;;5096084;28;20519;-63
2023/08/13 11:22:50;;;;;;;5.90;2.60;;;;;;;;;;5096191;28;20182;-63
2023/08/13 11:25:16;;;;;;;2.50;2.40;;;;;;;;;;5095972;28;20908;-63
2023/08/13 11:27:47;;;;;;;2.67;2.47;;;;;;;;;;5096600;28;20409;-63
2023/08/13 11:30:13;;;;;;;3.60;3.30;;;;;;;;;;5095917;28;20429;-63
2023/08/13 11:32:39;;;;;;;5.40;4.93;;;;;;;;;;5095825;28;20401;-63
2023/08/13 11:35:09;;;;;;;5.40;2.90;;;;;;;;;;5095884;28;20490;-63
2023/08/13 11:37:38;;;;;;;2.73;2.63;;;;;;;;;;5095870;28;20448;-63
2023/08/13 11:40:13;;;;;;;2.20;2.20;;;;;;;;;;5095727;28;20440;-63
2023/08/13 11:43:00;;;;;;;4.10;3.73;;;;;;;;;;5095592;28;20773;-63
2023/08/13 11:45:30;;;;;;;5.13;4.73;;;;;;;;;;5095665;28;20529;-63
2023/08/13 11:48:17;;;;;;;2.63;2.43;;;;;;;;;;5095609;28;20394;-63
2023/08/13 11:50:48;;;;;;;2.57;2.43;;;;;;;;;;5095864;28;20438;-64
2023/08/13 11:53:18;;;;;;;5.00;2.87;;;;;;;;;;5095547;28;20414;-63
2023/08/13 11:55:44;;;;;;;5.33;2.63;;;;;;;;;;5095729;28;20486;-63
2023/08/13 11:58:13;;;;;;;2.50;2.30;;;;;;;;;;5095483;28;20421;-63
2023/08/13 12:00:42;;;;;;;2.53;2.43;;;;;;;;;;5095255;28;20443;-63
2023/08/13 12:03:07;;;;;;;6.70;2.70;;;;;;;;;;5095247;28;20504;-63
2023/08/13 12:05:39;;;;;;;3.17;2.50;;;;;;;;;;5095251;28;20559;-63
2023/08/13 12:08:06;;;;;;;2.60;2.43;;;;;;;;;;5095233;28;20413;-63
2023/08/13 12:10:35;;;;;;;2.47;2.37;;;;;;;;;;5095166;28;20433;-63
2023/08/13 12:13:01;;;;;;;3.10;2.90;;;;;;;;;;5095140;28;20436;-63
2023/08/13 12:15:31;;;;;;;2.70;2.60;;;;;;;;;;5095262;28;20540;-63
2023/08/13 12:17:58;;;;;;;4.00;2.90;;;;;;;;;;5094054;28;20511;-64
2023/08/13 12:20:27;;;;;;;3.87;2.97;;;;;;;;;;5095109;28;20484;-63
2023/08/13 12:23:02;;;;;;;2.47;2.37;;;;;;;;;;5094741;28;20414;-63
2023/08/13 12:25:29;;;;;;;3.10;2.97;;;;;;;;;;5094964;28;20495;-63
2023/08/13 12:27:55;;;;;;;2.67;2.60;;;;;;;;;;5094654;28;20405;-63
2023/08/13 12:30:21;;;;;;;3.07;2.93;;;;;;;;;;5094632;28;20802;-63
2023/08/13 12:32:47;;;;;;;2.70;2.50;;;;;;;;;;5094713;28;20836;-63
2023/08/13 12:35:13;;;;;;;3.30;3.10;;;;;;;;;;5094636;28;20410;-63
2023/08/13 12:37:42;;;;;;;4.03;2.50;;;;;;;;;;5094679;28;20413;-63
2023/08/13 12:40:11;;;;;;;2.73;2.60;;;;;;;;;;5094617;28;20440;-63
2023/08/13 12:42:37;;;;;;;2.53;2.43;;;;;;;;;;5094778;28;20406;-63
2023/08/13 12:45:06;;;;;;;3.80;2.40;;;;;;;;;;5094294;28;20472;-63
2023/08/13 12:47:35;;;;;;;3.10;2.90;;;;;;;;;;5094415;28;20461;-63
2023/08/13 12:50:07;;;;;;;2.93;2.60;;;;;;;;;;5094407;28;20416;-63
2023/08/13 12:52:33;;;;;;;3.20;3.00;;;;;;;;;;5094254;28;20412;-63
2023/08/13 12:55:02;;;;;;;2.80;2.70;;;;;;;;;;5094325;28;20919;-63
2023/08/13 12:57:28;;;;;;;2.80;2.70;;;;;;;;;;5094239;28;20472;-63
2023/08/13 12:59:54;;;;;;;2.70;2.60;;;;;;;;;;5092893;28;20426;-63
2023/08/13 13:02:23;;;;;;;2.70;2.60;;;;;;;;;;5094115;28;20422;-63
2023/08/13 13:04:50;;;;;;;3.20;3.00;;;;;;;;;;5093902;28;20464;-63
2023/08/13 13:07:16;;;;;;;3.00;2.87;;;;;;;;;;5094083;28;20416;-63
2023/08/13 13:09:42;;;;;;;2.70;2.60;;;;;;;;;;5094008;28;20775;-63
2023/08/13 13:12:08;;;;;;;4.43;3.57;;;;;;;;;;5093634;28;20453;-63
2023/08/13 13:14:34;;;;;;;6.03;2.80;;;;;;;;;;5093853;28;20748;-63
2023/08/13 13:17:00;;;;;;;2.80;2.80;;;;;;;;;;5093881;28;20459;-63
2023/08/13 13:19:29;;;;;;;2.83;2.73;;;;;;;;;;5093699;28;20783;-63
2023/08/13 13:21:57;;;;;;;3.07;2.83;;;;;;;;;;5093628;28;20923;-63
2023/08/13 13:24:23;;;;;;;2.40;2.30;;;;;;;;;;5093722;28;20944;-63
2023/08/13 13:26:51;;;;;;;3.00;2.80;;;;;;;;;;5093625;28;20429;-63
2023/08/13 13:29:17;;;;;;;2.50;2.40;;;;;;;;;;5093333;28;20429;-63
2023/08/13 13:31:44;;;;;;;5.60;2.57;;;;;;;;;;5092398;28;20452;-63
2023/08/13 13:34:10;;;;;;;2.53;2.43;;;;;;;;;;5093508;28;20186;-63
2023/08/13 13:36:36;;;;;;;2.93;2.33;;;;;;;;;;5093546;28;20799;-63
2023/08/13 13:39:02;;;;;;;2.57;2.50;;;;;;;;;;5093945;28;20494;-63
2023/08/13 13:41:28;;;;;;;2.10;2.10;;;;;;;;;;5093526;28;20529;-63
2023/08/13 13:43:54;;;;;;;3.00;2.70;;;;;;;;;;5093372;28;20459;-63
2023/08/13 13:46:20;;;;;;;2.57;2.47;;;;;;;;;;5093406;28;20799;-63
2023/08/13 13:48:46;;;;;;;6.63;2.67;;;;;;;;;;5093350;28;20475;-63
2023/08/13 13:51:12;;;;;;;3.03;2.50;;;;;;;;;;5093243;28;20810;-63
2023/08/13 13:53:41;;;;;;;2.27;2.27;;;;;;;;;;5093276;28;20425;-63
2023/08/13 13:56:09;;;;;;;1.93;1.90;;;;;;;;;;5093225;28;20451;-63
2023/08/13 13:58:35;;;;;;;7.73;2.20;;;;;;;;;;5093209;28;20474;-63
2023/08/13 14:01:01;;;;;;;2.40;2.20;;;;;;;;;;5093114;28;20405;-63
2023/08/13 14:03:27;;;;;;;3.63;2.33;;;;;;;;;;5093147;28;20175;-63
2023/08/13 14:05:56;;;;;;;2.30;2.20;;;;;;;;;;5093003;28;20468;-63
2023/08/13 14:08:22;;;;;;;2.27;2.17;;;;;;;;;;5093071;28;20393;-63
2023/08/13 14:10:48;;;;;;;2.17;2.10;;;;;;;;;;5092900;28;20783;-63
2023/08/13 14:13:14;;;;;;;2.73;2.53;;;;;;;;;;5092687;28;20429;-63
2023/08/13 14:15:40;;;;;;;2.70;2.50;;;;;;;;;;5091730;28;20896;-63
2023/08/13 14:18:08;;;;;;;3.17;2.10;;;;;;;;;;5092739;28;20527;-63
2023/08/13 14:20:34;;;;;;;2.40;2.20;;;;;;;;;;5092818;28;20417;-63
2023/08/13 14:23:00;;;;;;;2.37;2.07;;;;;;;;;;5092681;28;20413;-63
2023/08/13 14:25:28;;;;;;;2.03;1.90;;;;;;;;;;5092880;28;20724;-63
2023/08/13 14:27:55;;;;;;;2.67;2.10;;;;;;;;;;5091296;28;20456;-63
2023/08/13 14:30:21;;;;;;;1.77;1.77;;;;;;;;;;5091382;28;20413;-63
2023/08/13 14:32:47;;;;;;;2.70;1.90;;;;;;;;;;5092632;28;20931;-63
2023/08/13 14:35:13;;;;;;;1.97;1.87;;;;;;;;;;5092642;28;20421;-63
2023/08/13 14:37:39;;;;;;;2.07;1.97;;;;;;;;;;5092575;28;20875;-63
2023/08/13 14:40:05;;;;;;;2.23;2.13;;;;;;;;;;5091948;28;20456;-63